Australia's Leading Digital Marketing Experts. T. 1300 235 433  |  Aggreagtion Enquires Welcome

ARFOR WordPress Shortcode Example

This page is used to demonstrate the ARFOR feature of the Metar WordPress plugin.

BANKSTOWN YSBK

TAF YSBK 152305Z 1600/1612
26008KT CAVOK
RMK
T 13 17 17 13 Q 1021 1019 1018 1019

METAR YSBK 160130Z AUTO 26007KT //// // NCD 16/00 Q1020 RMK
RF00.0/000.0

BATHURST YBTH

TAF YBTH 160125Z 1602/1614
25011KT CAVOK
BECMG 1609/1610 23010KT 9999 BKN015
RMK
T 10 11 05 03 Q 1021 1020 1021 1022

METAR YBTH 160130Z AUTO 24004KT 220V290 9999 // NCD 09/M02 Q1022 RMK
RF00.0/000.0

CAMDEN YSCN

TAF YSCN 152305Z 1600/1612
24008KT CAVOK
RMK FM161100 MOD TURB BLW 4000FT
T 12 17 16 11 Q 1021 1019 1018 1019

METAR YSCN 160130Z AUTO 24006KT 9999 // NCD 15/M02 Q1020 RMK
RF00.0/000.0

CANBERRA YSCB

TAF YSCB 152314Z 1600/1700
30010KT CAVOK
FM160900 29009KT 9999 SCT040
FM161300 30008KT 9999 SCT025
PROB30 1618/1622 0500 FG BKN001
RMK FM161500 MOD TURB BLW 5000FT TL161900
T 05 11 10 05 Q 1022 1018 1018 1019
TAF3

METAR YSCB 160130Z AUTO 33009KT 9999 // NCD 09/M01 Q1020
RMK RF00.0/000.0

COOMA YCOM

TAF YCOM 160125Z 1602/1614
29009KT CAVOK
RMK FM160900 MOD TURB BLW 5000FT
T 08 09 03 02 Q 1017 1016 1017 1017

METAR YCOM 160130Z AUTO 04007KT 9999 // NCD 08/M02 Q1018 RMK
RF00.0/000.0

COOTAMUNDRA YCTM

Nil current TAF.

METAR/SPECI observations are not generated for this location.

COWRA YCWR

Nil current TAF.

METAR YCWR 160130Z AUTO 32005KT 270V350 //// // ////// 10/04 Q1023
RMK RF00.0/000.0

FORBES YFBS

Nil current TAF.

METAR YFBS 160130Z AUTO 23006KT 200V260 //// // ////// 12/03 Q1024
RMK RF00.0/000.0

GOULBURN YGLB

TAF YGLB 151832Z 1520/1608
VRB03KT CAVOK
FM152300 29011KT CAVOK
FM160400 28015G25KT 9999 SCT040
RMK FM160600 MOD TURB BLW 5000FT
T M01 03 09 10 Q 1020 1021 1020 1019

METAR YGLB 160130Z AUTO 28016KT 9999 // NCD 09/00 Q1020 RMK
RF00.0/000.0

HOLSWORTHY YSHW

TAF YSHW 152305Z 1600/1612
25008KT CAVOK
RMK
T 13 16 16 11 Q 1021 1019 1018 1019

METAR YSHW 160130Z AUTO 27008KT 9999 // NCD 15/01 Q1020 RMK
RF00.0/000.0

LORD HOWE ISLAND YLHI

TAF YLHI 152316Z 1600/1700
25020G30KT 9999 SCT035
FM160300 21020G30KT 9999 FEW035
FM161200 22012KT 9999 FEW035
FM162100 27015G25KT 9999 SCT035
RMK FM160000 MOD TURB BLW 5000FT TL161000
T 20 20 19 18 Q 1012 1011 1013 1015

METAR YLHI 160130Z AUTO 24017KT 9999 // SCT039 19/14 Q1012 RMK
RF00.0/000.2

MALLACOOTA YMCO

Nil current TAF.

METAR YMCO 160130Z AUTO 27009KT //// // ////// 14/04 Q1017 RMK
RF00.0/000.2

MERIMBULA YMER

TAF YMER 160126Z 1602/1614
29010KT CAVOK
RMK FM160800 MOD TURB BLW 5000FT TL161100
FM161100 SEV TURB BLW 5000FT
T 14 16 11 09 Q 1018 1016 1016 1016

METAR YMER 160130Z AUTO 29009KT 9999 // NCD 14/05 Q1019 RMK
RF00.0/000.0

MORUYA YMRY

TAF YMRY 160128Z 1602/1614
04008KT CAVOK
FM160800 30008KT CAVOK
RMK FM161000 MOD TURB BLW 5000FT TL161300
FM161300 SEV TURB BLW 5000FT
T 15 15 12 10 Q 1018 1016 1016 1017

METAR YMRY 160130Z AUTO 03005KT 350V090 9999 // NCD 15/01 Q1019 RMK
RF00.0/000.0

NORFOLK ISLAND YSNF

TAF YSNF 152315Z 1600/1700
03008KT 9999 SCT025
FM160300 24006KT 9999 SCT035
FM161200 25014KT 9999 -SHRA FEW020 SCT030
FM161800 25014KT 9999 NSW FEW035
RMK
T 22 21 20 19 Q 1013 1012 1012 1013

METAR YSNF 160130Z AUTO 16006KT 9999 // BKN023 BKN027 OVC037 21/17
Q1012 RMK RF00.0/000.0

NOWRA YSNW

YSNW TAF YSNW 152317Z 1600/1612
30012KT CAVOK
RMK FM160600 MOD TURB BLW 3000FT TL160800
FM160800 SEV TURB BLW 3000FT
T 12 15 14 10 Q 1021 1018 1017 1018

METAR YSNW 160130Z AUTO 34007KT 9999 // NCD 15/M00 Q1019 RMK
RF00.0/000.0

ORANGE YORG

TAF YORG 160128Z 1602/1614
22008KT CAVOK
FM160600 24012KT 9999 SCT015
FM160800 24008KT 9999 BKN014
RMK
T 08 07 02 01 Q 1021 1021 1021 1022

METAR YORG 160130Z AUTO 24010KT 9999 // NCD 07/M02 Q1022 RMK
RF00.0/000.0

PARKES YPKS

TAF YPKS 160128Z 1602/1614
21011KT CAVOK
FM160600 23008KT 9999 SCT035
RMK
T 11 12 08 04 Q 1023 1022 1023 1024

METAR YPKS 160130Z AUTO 20011KT 9999 // NCD 11/01 Q1024 RMK
RF00.0/000.0

RICHMOND (NSW) YSRI

TAF YSRI 152318Z 1600/1700
VRB05KT CAVOK
RMK FM161400 MOD TURB BLW 4000FT TL162200
T 13 17 17 11 Q 1021 1019 1017 1019

METAR YSRI 160130Z AUTO 19003G27KT 9999 // NCD 16/01 Q1021 RMK
RF00.0/000.0

SHELLHARBOUR YSHL

TAF AMD YSHL 160123Z 1602/1614
29010KT CAVOK
FM161100 27016G26KT CAVOK
RMK FM160700 MOD TURB BLW 3000FT TL160900
FM160900 SEV TURB BLW 3000FT
T 16 16 12 09 Q 1019 1017 1018 1018

METAR YSHL 160130Z AUTO 29006KT 9999 // NCD 16/00 Q1020 RMK
RF00.0/000.0

SYDNEY YSSY

TAF YSSY 152323Z 1600/1706
26010KT CAVOK
FM160400 30008KT CAVOK
FM160900 25015KT CAVOK
FM170200 20015KT CAVOK
RMK FM161200 MOD TURB BLW 4000FT TL162200
T 14 17 17 14 Q 1021 1019 1018 1018
TAF3

METAR YSSY 160130Z 26010KT CAVOK 16/00 Q1020
RMK RF00.0/000.0

TEMORA YTEM

Nil current TAF.

METAR YTEM 160130Z AUTO 23012KT //// // ////// 11/01 Q1024 RMK
RF00.0/000.0

WAGGA WAGGA YSWG

TAF YSWG 152319Z 1600/1612
24008KT 9999 SCT030
BECMG 1601/1602 24012KT 9999 BKN035
FM160900 29008KT 9999 BKN030
RMK
T 07 12 12 08 Q 1024 1022 1022 1023

METAR YSWG 160130Z AUTO 24013KT 9999 // OVC043 10/03 Q1024 RMK
RF00.0/000.0

YOUNG YYNG

TAF YYNG 160129Z 1602/1614
25011KT CAVOK
FM160300 23010KT 9999 SCT025
RMK
T 11 11 07 03 Q 1022 1021 1022 1023

METAR YYNG 160130Z AUTO 23012KT 9999 // NCD 09/01 Q1023 RMK
RF00.0/000.0